CheckWX is a tool to help pilots better visualize weather data.  It is not intended as a substitute for an official pre-flight weather briefing.

18:56:25 UTC

KIMT METAR
Ford Airport
Iron Mountain Kingsford, Michigan, USA
Current

1 hour ago

KIMT 221754Z AUTO 18006KT 10SM CLR M02/M08 A3035 RMK AO2 SLP299 T10171078 11011 21122 55001
Observed
Feb-22 @ 17:54 UTC
Wind
  • 180° at 6 KTS
Visibility
10 SM
Flight Rules
VFR
Cloud Levels
  • Clear skies
Temperature
-2°C / 28°F
Dewpoint
-8°C / 18°F
Humidity
64%
Altimeter
30.35" Hg
Pressure
1029.9 hPa
Previous

2 hours ago

KIMT 221654Z AUTO 18008KT 10SM CLR M02/M08 A3035 RMK AO2 SLP298 T10221078
Observed
Feb-22 @ 16:54 UTC
Wind
  • 180° at 8 KTS
Visibility
10 SM
Flight Rules
VFR
Cloud Levels
  • Clear skies
Temperature
-2°C / 28°F
Dewpoint
-8°C / 18°F
Humidity
64%
Altimeter
30.35" Hg
Pressure
1029.8 hPa
Previous

3 hours ago

KIMT 221554Z AUTO 15004KT 10SM CLR M04/M08 A3035 RMK AO2 SLP298 T10441083
Observed
Feb-22 @ 15:54 UTC
Wind
  • 150° at 4 KTS
Visibility
10 SM
Flight Rules
VFR
Cloud Levels
  • Clear skies
Temperature
-4°C / 25°F
Dewpoint
-8°C / 18°F
Humidity
74%
Altimeter
30.35" Hg
Pressure
1029.8 hPa